Latest Weather Observations for Norah Head

IDN60901

Issued at 11:51 am EDT Tuesday 27 January 2015 (issued every 10 minutes, with the page automatically refreshed every 10 minutes)

About weather observations | Map of Sydney area stations | Latest observations for Sydney area | Other Formats
Station Details ID: 061366 Name: NORAH HEAD AWS Lat: -33.28 Lon: 151.58 Height: 18.8 m
Data from the previous 72 hours. | See also: Recent months at Norah Head
Date/Time
EDT
Tmp

°C
App
Tmp
°C
Dew
Point
°C
Rel
Hum
%
Delta-T

°C
Wind Press
QNH
hPa
Press
MSL
hPa
Rain
since
9 am
mm
Dir
 
Spd
km/h
Gust
km/h
Spd
kts
Gust
kts
27/11:30am 19.3 17.8 18.6 96 0.4 E 24 30 13 16 1013.3 1013.2 4.8
27/11:00am 20.2 20.9 18.9 92 0.8 E 13 19 7 10 1013.3 1013.2 2.0
27/10:30am 19.8 19.8 18.1 90 1.1 ESE 15 17 8 9 1013.1 1013.0 0.8
27/10:00am 19.8 19.0 17.9 89 1.2 E 19 24 10 13 1012.9 1012.8 0.4
27/09:30am 19.2 17.2 17.5 90 1.0 E 24 28 13 15 1012.8 1012.7 0.4
27/09:00am 19.4 16.4 17.7 90 1.0 NE 30 35 16 19 1012.6 1012.5 8.4
27/08:30am 20.3 18.1 18.8 91 0.9 NE 28 33 15 18 1012.5 1012.4 8.4
27/08:00am 20.4 18.3 18.9 91 0.9 NE 28 32 15 17 1012.1 1012.0 8.4
27/07:30am 20.5 18.9 19.2 92 0.8 NE 26 32 14 17 1011.8 1011.7 8.4
27/07:00am 20.1 17.9 18.8 92 0.8 NE 28 35 15 19 1011.6 1011.5 8.4
27/06:30am 20.6 18.8 18.7 89 1.2 NE 26 32 14 17 1011.4 1011.3 8.2
27/05:30am 21.7 21.5 18.5 82 2.0 ENE 17 20 9 11 1010.9 1010.8 8.2
27/05:00am 21.9 22.2 18.7 82 2.0 E 15 19 8 10 1011.1 1011.0 8.2
27/04:30am 21.9 22.1 18.5 81 2.1 ENE 15 17 8 9 1011.1 1011.0 8.0
27/04:00am 22.1 21.3 18.1 78 2.5 E 19 22 10 12 1011.0 1010.9 8.0
27/03:30am 22.1 22.2 19.1 83 1.9 E 17 22 9 12 1011.2 1011.1 8.0
27/03:00am 22.0 22.0 19.0 83 1.9 ENE 17 20 9 11 1011.5 1011.4 8.0
27/02:30am 21.8 21.3 18.6 82 2.0 ENE 19 24 10 13 1011.7 1011.6 8.0
27/02:00am 21.9 20.8 18.7 82 2.0 ENE 22 28 12 15 1011.8 1011.7 8.0
27/01:30am 21.8 20.2 18.4 81 2.1 E 24 28 13 15 1012.2 1012.1 8.0
27/01:00am 21.2 20.4 18.4 84 1.7 E 20 26 11 14 1012.6 1012.5 8.0
27/12:30am 20.6 19.0 19.1 91 0.9 ESE 26 32 14 17 1013.0 1012.9 8.0
27/12:00am 20.2 18.5 18.9 92 0.8 E 26 32 14 17 1013.3 1013.2 7.8
 
Date/Time
EDT
Tmp

°C
App
Tmp
°C
Dew
Point
°C
Rel
Hum
%
Delta-T

°C
Wind Press
QNH
hPa
Press
MSL
hPa
Rain
since
9 am
mm
Dir
 
Spd
km/h
Gust
km/h
Spd
kts
Gust
kts
26/11:30pm 20.6 19.9 19.6 94 0.6 ESE 22 30 12 16 1013.5 1013.4 5.8
26/11:00pm 20.2 18.2 19.2 94 0.6 ESE 28 33 15 18 1013.7 1013.6 5.8
26/10:30pm 20.8 21.5 19.6 93 0.8 ESE 15 22 8 12 1014.0 1013.9 3.2
26/10:00pm 20.9 22.3 19.6 92 0.8 E 11 22 6 12 1014.0 1013.9 3.0
26/09:30pm 20.6 22.3 19.3 92 0.8 ESE 9 13 5 7 1014.0 1013.9 3.0
26/09:00pm 20.3 20.3 19.0 92 0.8 SE 17 22 9 12 1014.0 1013.9 3.0
26/08:30pm 20.5 20.0 19.0 91 0.9 ESE 20 26 11 14 1013.7 1013.6 2.8
26/08:00pm 21.2 19.1 18.0 82 2.0 ESE 26 33 14 18 1013.1 1013.0 2.2
26/07:30pm 21.2 21.2 18.9 87 1.4 S 17 20 9 11 1012.7 1012.6 2.2
26/07:00pm 21.1 21.1 18.9 87 1.4 SSE 17 19 9 10 1012.7 1012.6 2.2
26/06:30pm 20.7 20.4 19.2 91 0.9 S 19 24 10 13 1012.5 1012.4 2.2
26/06:00pm 20.3 20.3 19.0 92 0.8 S 17 24 9 13 1012.6 1012.5 2.2
26/05:30pm 20.7 19.4 19.0 90 1.1 SSE 24 30 13 16 1012.5 1012.4 2.2
26/05:00pm 20.4 18.8 19.1 92 0.8 SSE 26 35 14 19 1012.5 1012.4 2.2
26/04:30pm 20.6 18.6 19.1 91 0.9 SSE 28 35 15 19 1012.7 1012.6 2.2
26/04:00pm 20.7 18.5 18.6 88 1.3 SSE 28 33 15 18 1012.8 1012.7 2.2
26/03:30pm 21.1 18.7 19.0 88 1.3 SSE 30 37 16 20 1012.3 1012.2 2.2
26/03:00pm 21.2 18.8 19.1 88 1.3 SSE 30 37 16 20 1012.2 1012.1 2.2
26/02:30pm 20.9 19.6 19.0 89 1.2 SSE 24 32 13 17 1012.3 1012.2 2.2
26/02:00pm 21.1 19.9 19.2 89 1.2 SE 24 30 13 16 1012.3 1012.2 2.2
26/01:30pm 20.9 18.8 19.0 89 1.2 SE 28 33 15 18 1012.6 1012.5 2.2
26/01:00pm 21.0 19.1 19.3 90 1.1 SSE 28 33 15 18 1012.7 1012.6 2.0
26/12:30pm 20.8 17.8 19.8 94 0.6 SSE 35 39 19 21 1012.7 1012.6 2.0
26/12:00pm 20.9 19.4 20.2 96 0.4 SSE 28 32 15 17 1012.9 1012.8 2.0
26/11:30am 20.7 18.7 19.9 95 0.5 SE 30 35 16 19 1012.8 1012.7 2.0
26/11:00am 20.9 18.3 19.9 94 0.6 SSE 33 39 18 21 1012.8 1012.7 1.8
26/10:30am 21.0 18.4 20.0 94 0.6 SSE 33 39 18 21 1012.8 1012.7 1.6
26/10:00am 20.7 18.3 19.9 95 0.5 SSE 32 37 17 20 1012.7 1012.6 1.6
26/09:30am 20.9 18.4 20.1 95 0.5 SSE 33 39 18 21 1012.4 1012.3 1.2
26/09:00am 21.1 19.1 19.9 93 0.8 SSE 30 37 16 20 1012.1 1012.0 1.2
26/08:30am 21.4 20.1 19.9 91 1.0 SSE 26 30 14 16 1011.8 1011.7 0.8
26/08:00am 21.5 19.7 19.6 89 1.2 S 28 33 15 18 1011.4 1011.3 0.6
26/07:30am 21.4 18.4 19.9 91 1.0 SSE 35 41 19 22 1011.1 1011.0 0.6
26/07:00am 21.2 18.5 19.7 91 1.0 S 33 43 18 23 1010.9 1010.8 0.6
26/06:30am 21.6 17.5 19.9 90 1.1 S 41 46 22 25 1010.3 1010.2 0.2
26/06:00am 22.2 21.6 19.7 86 1.6 S 22 30 12 16 1010.2 1010.1 0.0
26/05:30am 22.2 19.8 19.9 87 1.5 S 32 37 17 20 1009.5 1009.4 0.0
26/05:00am 22.0 19.9 19.7 87 1.5 S 30 39 16 21 1008.8 1008.8 0.0
26/04:30am 21.9 21.4 20.0 89 1.2 SSW 22 28 12 15 1009.5 1009.4 0.0
26/04:00am 21.9 22.4 20.0 89 1.2 S 17 22 9 12 1009.2 1009.2 0.0
26/03:30am 21.9 19.8 19.8 88 1.3 S 30 35 16 19 1008.8 1008.8 0.0
26/03:00am 21.9 20.7 20.0 89 1.2 S 26 35 14 19 1009.0 1009.0 0.0
26/02:30am 21.9 19.6 20.2 90 1.1 S 32 39 17 21 1008.8 1008.8 0.0
26/02:00am 22.0 19.8 20.3 90 1.1 S 32 41 17 22 1008.4 1008.4 0.0
26/01:30am 22.2 20.9 20.7 91 1.0 SSW 28 33 15 18 1008.7 1008.7 0.0
26/01:00am 22.2 20.6 20.7 91 1.0 SSW 30 39 16 21 1008.6 1008.6 0.0
26/12:30am 22.3 21.1 20.8 91 1.0 SSW 28 35 15 19 1008.7 1008.7 0.0
26/12:00am 22.5 21.4 21.0 91 1.0 SSW 28 35 15 19 1008.7 1008.7 0.0
 
Date/Time
EDT
Tmp

°C
App
Tmp
°C
Dew
Point
°C
Rel
Hum
%
Delta-T

°C
Wind Press
QNH
hPa
Press
MSL
hPa
Rain
since
9 am
mm
Dir
 
Spd
km/h
Gust
km/h
Spd
kts
Gust
kts
25/11:30pm 22.6 21.2 21.1 91 1.0 SSW 30 39 16 21 1008.6 1008.6 0.0
25/11:00pm 22.7 20.4 21.2 91 1.0 S 35 43 19 23 1008.0 1008.0 0.0
25/10:30pm 22.9 20.7 21.5 92 0.9 SSW 35 48 19 26 1007.4 1007.4 0.0
25/10:00pm 23.0 21.0 21.8 93 0.8 SSW 35 46 19 25 1006.8 1006.8 0.0
25/09:30pm 23.1 21.4 21.7 92 0.9 SSW 33 44 18 24 1006.3 1006.3 0.0
25/09:00pm 23.6 22.5 21.7 89 1.3 SSW 30 41 16 22 1005.8 1005.8 0.0
25/08:40pm 25.7 23.6 20.9 75 3.2 SSW 33 46 18 25 1005.2 1005.2 0.0
25/08:30pm 25.2 28.9 20.7 76 2.9 NW 2 26 1 14 1004.6 1004.6 0.0
25/08:00pm 26.1 30.2 20.7 72 3.6 CALM 0 2 0 1 1003.8 1003.8 0.0
25/07:30pm 26.2 29.1 19.8 68 4.2 S 4 7 2 4 1003.5 1003.4 0.0
25/07:00pm 26.9 30.3 19.3 63 4.9 CALM 0 0 0 0 1003.1 1003.0 0.0
25/06:30pm 27.3 30.1 19.6 62 5.0 SSE 4 6 2 3 1002.5 1002.4 0.0
25/06:00pm 27.0 29.6 20.1 66 4.5 N 6 15 3 8 1002.1 1002.0 0.0
25/05:30pm 25.9 27.9 20.0 70 3.8 N 9 13 5 7 1001.7 1001.6 0.0
25/05:00pm 26.6 28.2 20.0 67 4.3 NNE 11 13 6 7 1001.5 1001.4 0.0
25/04:30pm 26.7 27.0 20.3 68 4.2 NNE 19 26 10 14 1001.5 1001.4 0.0
25/04:00pm 26.7 27.0 20.8 70 3.9 NE 20 22 11 12 1001.8 1001.7 0.0
25/03:30pm 27.9 28.3 21.0 66 4.6 ENE 20 22 11 12 1001.8 1001.7 0.0
25/03:00pm 29.8 30.5 21.5 61 5.6 ENE 20 20 11 11 1001.9 1001.8 0.0
25/02:30pm 31.7 33.0 22.7 59 6.2 ENE 20 20 11 11 1002.0 1001.9 0.0
25/02:00pm 31.6 33.2 23.2 61 5.8 NE 20 22 11 12 1002.1 1002.0 0.0
25/01:30pm 29.7 33.0 23.9 71 4.0 E 13 17 7 9 1002.3 1002.2 0.0
25/01:00pm 29.1 31.8 22.1 66 4.7 E 11 15 6 8 1002.6 1002.5 0.0
25/12:30pm 29.5 32.2 22.2 65 4.9 E 11 13 6 7 1002.8 1002.7 0.0
25/12:00pm 29.4 31.6 20.3 58 6.0 E 9 11 5 6 1003.1 1003.0 0.0
25/11:30am 30.0 32.4 19.7 54 6.7 E 6 7 3 4 1003.1 1003.0 0.0
25/11:00am 30.6 34.0 20.2 53 6.9 NNW 2 9 1 5 1002.9 1002.8 0.0
25/10:30am 30.2 32.4 20.4 55 6.5 NNW 9 13 5 7 1002.8 1002.7 0.0
25/10:00am 28.5 31.3 20.8 63 5.1 NW 7 15 4 8 1002.9 1002.8 0.0
25/09:30am 27.4 30.0 20.5 66 4.5 W 7 24 4 13 1003.0 1002.9 0.0
25/09:00am 26.2 29.1 21.0 73 3.4 NW 7 13 4 7 1003.0 1002.9 0.0
25/08:30am 23.7 26.4 20.2 81 2.3 NW 6 9 3 5 1003.3 1003.2 0.0
25/08:00am 22.3 25.8 20.4 89 1.2 WNW 2 9 1 5 1003.2 1003.1 0.0
25/07:30am 22.1 24.9 20.9 93 0.8 NNW 7 9 4 5 1003.1 1003.0 0.0
25/07:00am 22.3 26.0 21.5 95 0.5 NNW 4 6 2 3 1002.8 1002.7 0.0
25/06:30am 21.1 24.0 19.9 93 0.8 NNW 4 6 2 3 1002.6 1002.5 0.0
25/06:00am 21.5 25.4 20.3 93 0.8 CALM 0 6 0 3 1002.6 1002.5 0.0
25/05:30am 21.7 25.7 20.5 93 0.8 CALM 0 0 0 0 1002.2 1002.1 0.0
25/05:00am 21.7 25.7 20.5 93 0.8 CALM 0 4 0 2 1002.2 1002.1 0.0
25/04:30am 22.0 25.0 20.8 93 0.8 NNW 6 9 3 5 1002.2 1002.1 0.0
25/04:00am 22.3 26.6 21.1 93 0.8 CALM 0 4 0 2 1002.4 1002.3 0.0
25/03:30am 22.6 27.0 21.4 93 0.8 CALM 0 4 0 2 1002.0 1001.9 0.0
25/03:00am 22.3 26.6 21.1 93 0.8 CALM 0 4 0 2 1002.2 1002.1 0.0
25/02:30am 22.3 25.2 21.1 93 0.8 NW 7 11 4 6 1003.0 1002.9 0.0
25/02:00am 22.4 25.5 21.0 92 0.9 NNW 6 9 3 5 1003.5 1003.4 0.0
25/01:30am 22.6 25.9 21.4 93 0.8 NW 6 13 3 7 1004.2 1004.2 0.0
25/01:00am 22.7 23.6 21.5 93 0.8 NNE 19 20 10 11 1004.6 1004.6 0.0
25/12:30am 23.0 23.7 21.5 91 1.0 NNE 20 22 11 12 1005.4 1005.4 0.0
25/12:00am 23.1 24.9 21.2 89 1.2 NNE 13 15 7 8 1006.0 1006.0 0.0
 
Date/Time
EDT
Tmp

°C
App
Tmp
°C
Dew
Point
°C
Rel
Hum
%
Delta-T

°C
Wind Press
QNH
hPa
Press
MSL
hPa
Rain
since
9 am
mm
Dir
 
Spd
km/h
Gust
km/h
Spd
kts
Gust
kts
24/11:30pm 23.3 25.5 21.2 88 1.4 N 11 13 6 7 1006.2 1006.2 0.0
24/11:00pm 23.4 26.6 21.3 88 1.4 N 6 9 3 5 1006.4 1006.4 0.0
24/10:30pm 23.2 25.6 21.5 90 1.1 NNW 11 15 6 8 1006.3 1006.3 0.0
24/10:00pm 23.2 26.0 21.6 91 1.1 NNW 9 11 5 6 1006.4 1006.4 0.0
24/09:30pm 23.2 25.2 21.6 91 1.1 NNE 13 15 7 8 1005.7 1005.7 0.0
24/09:00pm 23.3 24.6 21.6 90 1.1 NNE 17 20 9 11 1005.2 1005.2 0.0
24/08:30pm 23.4 24.7 21.7 90 1.1 NNE 17 19 9 10 1005.0 1005.0 0.0
24/08:00pm 23.4 24.2 21.7 90 1.1 NE 20 24 11 13 1004.5 1004.5 0.0
24/07:30pm 23.4 24.4 21.7 90 1.1 NE 19 20 10 11 1004.2 1004.2 0.0
24/07:00pm 23.6 24.5 21.5 88 1.4 NNE 19 20 10 11 1004.2 1004.2 0.0
24/06:30pm 23.6 24.4 21.3 87 1.5 NNE 19 20 10 11 1003.8 1003.8 0.0
24/06:00pm 23.9 24.5 21.4 86 1.7 NNE 20 24 11 13 1003.7 1003.7 0.0
24/05:30pm 24.2 24.9 21.5 85 1.8 NNE 20 24 11 13 1003.7 1003.7 0.0
24/05:00pm 24.8 25.1 21.5 82 2.2 NE 22 26 12 14 1004.0 1004.0 0.0
24/04:30pm 25.1 25.4 21.6 81 2.3 NE 22 28 12 15 1004.4 1004.4 0.0
24/04:00pm 25.5 26.2 21.6 79 2.6 NE 20 24 11 13 1004.6 1004.6 0.0
24/03:30pm 26.2 26.2 21.6 76 3.1 NE 24 28 13 15 1005.1 1005.1 0.0
24/03:00pm 27.1 26.7 20.9 69 4.1 NE 24 30 13 16 1005.5 1005.5 0.0
24/02:30pm 29.6 30.2 22.8 67 4.6 NE 24 28 13 15 1005.7 1005.7 0.0
24/02:00pm 29.9 31.2 23.3 67 4.5 NE 22 26 12 14 1006.2 1006.2 0.0
24/01:30pm 29.9 31.6 23.1 67 4.7 NE 19 22 10 12 1006.5 1006.5 0.0
24/01:00pm 30.0 32.4 23.7 69 4.4 NE 17 19 9 10 1006.9 1006.9 0.0
24/12:30pm 29.8 32.6 23.7 70 4.2 NE 15 17 8 9 1007.3 1007.3 0.0
24/12:00pm 29.1 31.8 22.8 69 4.3 ENE 13 17 7 9 1007.6 1007.6 0.0

Latest Capital City Observations: Canberra | Sydney | Melbourne | Brisbane | Adelaide | Perth | Hobart | Darwin

Other Formats:

Comma delimited format used in spreadsheet applications
http://www.bom.gov.au/fwo/IDN60901/IDN60901.95770.axf

JavaScript Object Notation format (JSON) in row-major order
http://www.bom.gov.au/fwo/IDN60901/IDN60901.95770.json